Time;durP1;ratioP1;P1;durP2;ratioP2;P2;SDS_P1;SDS_P2;PMS_P1;PMS_P2;Temp;Humidity;BMP_temperature;BMP_pressure;BME280_temperature;BME280_humidity;BME280_pressure;Samples;Min_cycle;Max_cycle;Signal;HPM_P1;HPM_P2
2023/04/14 05:00:21;;;;;;;3.40;2.17;;;;;;;;;;1755733;28;20235;-69
2023/04/14 05:01:13;;;;;;;6.30;2.50;;;;;;;;;;1755593;28;20631;-67
2023/04/14 05:02:06;;;;;;;6.75;2.70;;;;;;;;;;1755598;28;20247;-67
2023/04/14 05:02:57;;;;;;;4.28;2.13;;;;;;;;;;1755596;28;20205;-66
2023/04/14 05:03:49;;;;;;;7.57;2.40;;;;;;;;;;1755498;28;20194;-66
2023/04/14 05:04:40;;;;;;;5.47;2.90;;;;;;;;;;1755418;28;20226;-66
2023/04/14 05:05:35;;;;;;;7.13;2.70;;;;;;;;;;1755496;28;20221;-66
2023/04/14 05:06:27;;;;;;;6.20;2.67;;;;;;;;;;1755188;28;20202;-66
2023/04/14 05:07:19;;;;;;;7.88;2.78;;;;;;;;;;1755422;28;20217;-67
2023/04/14 05:08:11;;;;;;;4.63;2.38;;;;;;;;;;1755497;28;20570;-66
2023/04/14 05:09:03;;;;;;;3.65;2.20;;;;;;;;;;1755585;28;20559;-66
2023/04/14 05:09:55;;;;;;;4.32;2.92;;;;;;;;;;1755402;28;20209;-66
2023/04/14 05:10:46;;;;;;;4.78;2.40;;;;;;;;;;1755406;28;20218;-66
2023/04/14 05:11:38;;;;;;;5.47;2.47;;;;;;;;;;1755393;28;20194;-66
2023/04/14 05:12:29;;;;;;;4.82;2.97;;;;;;;;;;1755405;28;20208;-66
2023/04/14 05:13:21;;;;;;;6.35;2.83;;;;;;;;;;1755452;28;20206;-66
2023/04/14 05:14:13;;;;;;;3.85;2.30;;;;;;;;;;1755527;28;20831;-66
2023/04/14 05:15:05;;;;;;;6.53;3.00;;;;;;;;;;1755443;28;20563;-65
2023/04/14 05:16:03;;;;;;;5.05;2.50;;;;;;;;;;1755529;28;20193;-66
2023/04/14 05:16:55;;;;;;;6.47;3.00;;;;;;;;;;1755177;28;20318;-67
2023/04/14 05:17:46;;;;;;;6.95;2.95;;;;;;;;;;1755407;28;20201;-66
2023/04/14 05:18:38;;;;;;;6.20;2.88;;;;;;;;;;1755437;28;20201;-66
2023/04/14 05:19:30;;;;;;;4.68;2.25;;;;;;;;;;1755395;28;20208;-66
2023/04/14 05:20:22;;;;;;;4.10;2.50;;;;;;;;;;1755029;28;20621;-65
2023/04/14 05:21:14;;;;;;;5.30;2.95;;;;;;;;;;1752531;28;20194;-66
2023/04/14 05:22:06;;;;;;;4.97;2.30;;;;;;;;;;1755383;28;20605;-67
2023/04/14 05:22:57;;;;;;;2.83;2.20;;;;;;;;;;1755454;28;20747;-66
2023/04/14 05:23:49;;;;;;;7.53;2.85;;;;;;;;;;1755359;28;20198;-66
2023/04/14 05:24:41;;;;;;;4.60;2.50;;;;;;;;;;1754882;28;20245;-66
2023/04/14 05:25:33;;;;;;;6.68;2.75;;;;;;;;;;1754931;28;20209;-67
2023/04/14 05:26:24;;;;;;;7.50;2.38;;;;;;;;;;1754850;28;20225;-67
2023/04/14 05:27:16;;;;;;;8.88;3.47;;;;;;;;;;1755252;28;20555;-66
2023/04/14 05:28:07;;;;;;;6.05;2.67;;;;;;;;;;1755307;28;20201;-67
2023/04/14 05:28:59;;;;;;;4.85;2.63;;;;;;;;;;1755298;28;20194;-67
2023/04/14 05:29:51;;;;;;;5.68;2.70;;;;;;;;;;1755312;28;20209;-67
2023/04/14 05:30:43;;;;;;;6.32;2.35;;;;;;;;;;1755191;28;20628;-67
2023/04/14 05:31:35;;;;;;;5.82;2.53;;;;;;;;;;1755170;28;20628;-67
2023/04/14 05:32:28;;;;;;;3.60;2.33;;;;;;;;;;1755342;28;20201;-67
2023/04/14 05:33:19;;;;;;;5.03;2.10;;;;;;;;;;1755347;28;20201;-67
2023/04/14 05:34:11;;;;;;;3.72;2.40;;;;;;;;;;1755332;28;20217;-67
2023/04/14 05:35:02;;;;;;;5.22;2.50;;;;;;;;;;1755345;28;20194;-67
2023/04/14 05:35:54;;;;;;;4.47;2.10;;;;;;;;;;1755448;28;20680;-67
2023/04/14 05:36:45;;;;;;;6.50;2.53;;;;;;;;;;1754923;28;20209;-67
2023/04/14 05:37:37;;;;;;;10.15;2.60;;;;;;;;;;1754946;28;20197;-66
2023/04/14 05:38:28;;;;;;;6.95;2.45;;;;;;;;;;1755337;28;20201;-67
2023/04/14 05:39:20;;;;;;;7.60;2.60;;;;;;;;;;1755395;28;20198;-67
2023/04/14 05:40:12;;;;;;;3.20;2.08;;;;;;;;;;1754871;28;20209;-67
2023/04/14 05:41:04;;;;;;;6.90;2.50;;;;;;;;;;1752335;28;20226;-67
2023/04/14 05:41:55;;;;;;;4.50;2.17;;;;;;;;;;1755254;28;20209;-67
2023/04/14 05:42:47;;;;;;;6.57;2.35;;;;;;;;;;1755325;28;20205;-66
2023/04/14 05:43:38;;;;;;;4.38;2.40;;;;;;;;;;1755367;28;20240;-66
2023/04/14 05:44:30;;;;;;;7.38;3.28;;;;;;;;;;1755134;28;20247;-65
2023/04/14 05:45:21;;;;;;;5.95;2.55;;;;;;;;;;1752563;28;20226;-67
2023/04/14 05:46:13;;;;;;;3.63;2.10;;;;;;;;;;1754692;28;20601;-67
2023/04/14 05:47:06;;;;;;;7.60;2.70;;;;;;;;;;1755203;28;20202;-66
2023/04/14 05:47:58;;;;;;;7.78;2.13;;;;;;;;;;1754812;28;20198;-66
2023/04/14 05:48:49;;;;;;;6.18;2.60;;;;;;;;;;1755103;28;20201;-66
2023/04/14 05:49:41;;;;;;;7.55;2.60;;;;;;;;;;1755243;28;20665;-66
2023/04/14 05:50:33;;;;;;;3.60;2.13;;;;;;;;;;1752054;28;20702;-66
2023/04/14 05:51:26;;;;;;;4.30;2.17;;;;;;;;;;1752272;28;20205;-67
2023/04/14 05:52:17;;;;;;;7.72;2.60;;;;;;;;;;1752467;28;20204;-67
2023/04/14 05:53:10;;;;;;;6.88;3.00;;;;;;;;;;1755139;28;20221;-67
2023/04/14 05:54:01;;;;;;;6.57;2.10;;;;;;;;;;1755145;28;20201;-69
2023/04/14 05:54:54;;;;;;;3.50;2.13;;;;;;;;;;1755125;28;20194;-67
2023/04/14 05:55:46;;;;;;;6.70;2.65;;;;;;;;;;1755079;28;20213;-67
2023/04/14 05:56:38;;;;;;;5.95;2.45;;;;;;;;;;1753897;28;20205;-67
2023/04/14 05:57:29;;;;;;;5.78;2.70;;;;;;;;;;1750790;28;20225;-66
2023/04/14 05:58:22;;;;;;;5.47;2.22;;;;;;;;;;1751018;28;20293;-66
2023/04/14 05:59:15;;;;;;;10.20;2.30;;;;;;;;;;1752717;28;20293;-66
2023/04/14 06:00:11;;;;;;;9.73;2.30;;;;;;;;;;1750612;28;20277;-67
2023/04/14 06:01:03;;;;;;;6.20;2.75;;;;;;;;;;1753744;28;20236;-67
2023/04/14 06:01:55;;;;;;;7.05;2.50;;;;;;;;;;1755213;28;20198;-67
2023/04/14 06:02:48;;;;;;;4.90;2.00;;;;;;;;;;1755154;28;20274;-67
2023/04/14 06:03:39;;;;;;;5.50;2.40;;;;;;;;;;1755093;28;20243;-67
2023/04/14 06:04:32;;;;;;;4.63;2.33;;;;;;;;;;1755085;28;20584;-67
2023/04/14 06:05:23;;;;;;;8.13;2.80;;;;;;;;;;1755054;28;20222;-68
2023/04/14 06:06:16;;;;;;;7.55;2.17;;;;;;;;;;1754897;28;20196;-68
2023/04/14 06:07:07;;;;;;;9.98;2.95;;;;;;;;;;1755007;28;20338;-68
2023/04/14 06:07:59;;;;;;;6.05;3.42;;;;;;;;;;1755131;28;20228;-67
2023/04/14 06:08:50;;;;;;;3.42;2.47;;;;;;;;;;1755004;28;20206;-67
2023/04/14 06:09:45;;;;;;;5.50;2.38;;;;;;;;;;1755038;28;20198;-67
2023/04/14 06:10:36;;;;;;;6.05;2.00;;;;;;;;;;1755023;28;20221;-67
2023/04/14 06:11:28;;;;;;;4.55;2.30;;;;;;;;;;1755030;28;20201;-67
2023/04/14 06:12:19;;;;;;;5.38;3.25;;;;;;;;;;1755029;28;20201;-67
2023/04/14 06:13:11;;;;;;;6.57;2.15;;;;;;;;;;1755083;28;20200;-67
2023/04/14 06:14:04;;;;;;;4.10;2.10;;;;;;;;;;1754129;28;20194;-67
2023/04/14 06:14:56;;;;;;;6.85;2.50;;;;;;;;;;1755122;28;20263;-68
2023/04/14 06:15:48;;;;;;;4.20;1.85;;;;;;;;;;1755017;28;20205;-68
2023/04/14 06:16:40;;;;;;;5.82;2.00;;;;;;;;;;1754726;28;20573;-67
2023/04/14 06:17:31;;;;;;;4.75;2.20;;;;;;;;;;1754761;28;20565;-67
2023/04/14 06:18:24;;;;;;;5.45;2.97;;;;;;;;;;1754377;28;20200;-68
2023/04/14 06:19:17;;;;;;;5.63;2.78;;;;;;;;;;1754336;28;20248;-68
2023/04/14 06:20:09;;;;;;;6.43;2.20;;;;;;;;;;1754267;28;20368;-67
2023/04/14 06:21:01;;;;;;;6.00;2.30;;;;;;;;;;1753892;28;20456;-68
2023/04/14 06:21:53;;;;;;;4.50;1.90;;;;;;;;;;1754300;28;20610;-68
2023/04/14 06:22:44;;;;;;;6.53;2.70;;;;;;;;;;1754612;28;20198;-67
2023/04/14 06:23:37;;;;;;;5.70;2.50;;;;;;;;;;1755075;28;20205;-67
2023/04/14 06:24:28;;;;;;;7.25;3.00;;;;;;;;;;1755087;28;20206;-67
2023/04/14 06:25:20;;;;;;;4.75;1.95;;;;;;;;;;1754954;28;20218;-68
2023/04/14 06:26:11;;;;;;;4.13;2.17;;;;;;;;;;1754929;28;20198;-68
2023/04/14 06:27:03;;;;;;;5.18;2.05;;;;;;;;;;1754926;28;20190;-67
2023/04/14 06:27:54;;;;;;;7.72;2.30;;;;;;;;;;1755011;28;20206;-67
2023/04/14 06:28:46;;;;;;;6.05;1.90;;;;;;;;;;1754922;28;20200;-67
2023/04/14 06:29:38;;;;;;;4.78;2.15;;;;;;;;;;1754819;28;20198;-68
2023/04/14 06:30:31;;;;;;;3.95;2.25;;;;;;;;;;1754315;28;20197;-66
2023/04/14 06:31:22;;;;;;;9.07;2.25;;;;;;;;;;1754975;28;20216;-67
2023/04/14 06:32:14;;;;;;;4.75;2.60;;;;;;;;;;1755043;28;20671;-67
2023/04/14 06:33:06;;;;;;;6.25;2.38;;;;;;;;;;1754723;28;20205;-67
2023/04/14 06:33:59;;;;;;;5.70;2.67;;;;;;;;;;1754176;28;20201;-67
2023/04/14 06:34:50;;;;;;;5.47;2.63;;;;;;;;;;1754299;28;20209;-67
2023/04/14 06:35:42;;;;;;;7.88;2.75;;;;;;;;;;1754213;28;20198;-69
2023/04/14 06:36:33;;;;;;;6.30;2.10;;;;;;;;;;1754012;28;20205;-68
2023/04/14 06:37:25;;;;;;;4.93;2.22;;;;;;;;;;1754758;28;20221;-68
2023/04/14 06:38:16;;;;;;;7.13;3.03;;;;;;;;;;1754885;28;20249;-68
2023/04/14 06:39:08;;;;;;;4.75;2.20;;;;;;;;;;1754934;28;20190;-68
2023/04/14 06:40:00;;;;;;;6.40;2.55;;;;;;;;;;1754867;28;20220;-68
2023/04/14 06:40:52;;;;;;;4.88;2.10;;;;;;;;;;1754804;28;20217;-68
2023/04/14 06:41:43;;;;;;;6.45;2.63;;;;;;;;;;1754895;28;20758;-68
2023/04/14 06:42:35;;;;;;;5.85;2.35;;;;;;;;;;1754873;28;20196;-68
2023/04/14 06:43:27;;;;;;;7.03;2.85;;;;;;;;;;1754507;28;20202;-68
2023/04/14 06:44:19;;;;;;;5.05;2.83;;;;;;;;;;1754920;28;20633;-68
2023/04/14 06:45:11;;;;;;;4.35;2.33;;;;;;;;;;1754919;28;20258;-68
2023/04/14 06:46:03;;;;;;;4.57;2.15;;;;;;;;;;1754901;28;20206;-68
2023/04/14 06:46:54;;;;;;;3.63;2.15;;;;;;;;;;1754184;28;20198;-68
2023/04/14 06:47:46;;;;;;;5.13;2.38;;;;;;;;;;1754779;28;20190;-68
2023/04/14 06:48:37;;;;;;;5.85;2.97;;;;;;;;;;1754871;28;20202;-68
2023/04/14 06:49:30;;;;;;;7.03;2.70;;;;;;;;;;1754856;28;20622;-68
2023/04/14 06:50:21;;;;;;;8.52;2.60;;;;;;;;;;1754809;28;20209;-68
2023/04/14 06:51:13;;;;;;;7.53;2.17;;;;;;;;;;1754944;28;20193;-68
2023/04/14 06:52:05;;;;;;;5.13;2.50;;;;;;;;;;1754813;28;20206;-67
2023/04/14 06:52:57;;;;;;;4.55;2.40;;;;;;;;;;1754871;28;20194;-68
2023/04/14 06:53:48;;;;;;;5.65;1.85;;;;;;;;;;1754827;28;20225;-68
2023/04/14 06:54:41;;;;;;;5.38;2.03;;;;;;;;;;1754849;28;20208;-68
2023/04/14 06:55:34;;;;;;;7.60;2.47;;;;;;;;;;1754913;28;20206;-67
2023/04/14 06:56:26;;;;;;;5.78;2.60;;;;;;;;;;1754566;28;21286;-68
2023/04/14 06:57:17;;;;;;;6.00;2.35;;;;;;;;;;1754710;28;20220;-68
2023/04/14 06:58:09;;;;;;;5.75;2.70;;;;;;;;;;1754807;28;20223;-68
2023/04/14 06:59:00;;;;;;;8.07;3.80;;;;;;;;;;1754849;28;20564;-68
2023/04/14 06:59:53;;;;;;;5.47;2.28;;;;;;;;;;1754847;28;20239;-68
2023/04/14 07:00:44;;;;;;;7.47;1.88;;;;;;;;;;1754693;28;20232;-67
2023/04/14 07:01:36;;;;;;;4.43;2.20;;;;;;;;;;1754834;28;20204;-68
2023/04/14 07:02:27;;;;;;;6.40;3.13;;;;;;;;;;1754789;28;20233;-68
2023/04/14 07:03:19;;;;;;;4.65;2.35;;;;;;;;;;1754604;28;20194;-68
2023/04/14 07:04:12;;;;;;;4.15;2.40;;;;;;;;;;1754830;28;20250;-68
2023/04/14 07:05:06;;;;;;;5.65;2.30;;;;;;;;;;1754821;28;20197;-68
2023/04/14 07:06:01;;;;;;;3.22;1.90;;;;;;;;;;1754734;28;20716;-68
2023/04/14 07:06:53;;;;;;;4.85;2.03;;;;;;;;;;1754420;28;20222;-68
2023/04/14 07:07:45;;;;;;;5.05;2.15;;;;;;;;;;1754718;28;20244;-67
2023/04/14 07:08:37;;;;;;;5.40;2.70;;;;;;;;;;1754863;28;20204;-68
2023/04/14 07:09:28;;;;;;;6.22;2.38;;;;;;;;;;1754771;28;20204;-68
2023/04/14 07:10:20;;;;;;;5.72;1.92;;;;;;;;;;1754729;28;20200;-68
2023/04/14 07:11:11;;;;;;;3.97;1.73;;;;;;;;;;1754686;28;20653;-68
2023/04/14 07:12:04;;;;;;;7.10;2.25;;;;;;;;;;1754736;28;20194;-68
2023/04/14 07:12:55;;;;;;;4.75;1.80;;;;;;;;;;1754741;28;20197;-68
2023/04/14 07:13:48;;;;;;;4.75;2.10;;;;;;;;;;1754829;28;20204;-68
2023/04/14 07:14:39;;;;;;;5.47;2.10;;;;;;;;;;1754771;28;20202;-68
2023/04/14 07:15:31;;;;;;;6.13;2.38;;;;;;;;;;1754812;28;20213;-68
2023/04/14 07:16:22;;;;;;;4.63;1.83;;;;;;;;;;1754498;28;20208;-68
2023/04/14 07:17:14;;;;;;;5.93;2.20;;;;;;;;;;1754721;28;20565;-68
2023/04/14 07:18:05;;;;;;;5.22;2.42;;;;;;;;;;1754760;28;20699;-68
2023/04/14 07:18:57;;;;;;;7.15;2.42;;;;;;;;;;1754864;28;20208;-68
2023/04/14 07:19:48;;;;;;;5.85;2.33;;;;;;;;;;1754355;28;20193;-68
2023/04/14 07:20:42;;;;;;;4.85;2.05;;;;;;;;;;1754694;28;20217;-68
2023/04/14 07:21:33;;;;;;;9.68;2.50;;;;;;;;;;1754634;28;20586;-68
2023/04/14 07:22:25;;;;;;;5.18;2.28;;;;;;;;;;1754858;28;20201;-68
2023/04/14 07:23:16;;;;;;;6.43;2.17;;;;;;;;;;1754694;28;20209;-68
2023/04/14 07:24:08;;;;;;;7.35;3.72;;;;;;;;;;1754807;28;20201;-69
2023/04/14 07:24:59;;;;;;;5.15;2.10;;;;;;;;;;1754773;28;20229;-68
2023/04/14 07:25:51;;;;;;;5.28;2.88;;;;;;;;;;1754704;28;20218;-68
2023/04/14 07:26:43;;;;;;;5.78;2.10;;;;;;;;;;1754361;28;20618;-68
2023/04/14 07:27:35;;;;;;;5.32;1.90;;;;;;;;;;1754662;28;20201;-68
2023/04/14 07:28:27;;;;;;;3.60;2.00;;;;;;;;;;1754740;28;20201;-68
2023/04/14 07:29:19;;;;;;;3.63;1.95;;;;;;;;;;1754681;28;20204;-68
2023/04/14 07:30:10;;;;;;;5.82;2.22;;;;;;;;;;1754698;28;20233;-68
2023/04/14 07:31:07;;;;;;;4.68;2.10;;;;;;;;;;1754506;28;20225;-68
2023/04/14 07:32:00;;;;;;;5.30;1.83;;;;;;;;;;1754775;28;20231;-68
2023/04/14 07:32:51;;;;;;;6.05;2.00;;;;;;;;;;1754727;28;20198;-68
2023/04/14 07:33:43;;;;;;;3.72;1.90;;;;;;;;;;1754711;28;20197;-68
2023/04/14 07:34:34;;;;;;;4.15;1.75;;;;;;;;;;1754821;28;20583;-68
2023/04/14 07:35:26;;;;;;;4.93;2.03;;;;;;;;;;1754814;28;20292;-68
2023/04/14 07:36:18;;;;;;;7.90;2.30;;;;;;;;;;1753928;28;20688;-68
2023/04/14 07:37:10;;;;;;;3.53;1.67;;;;;;;;;;1754685;28;20213;-68
2023/04/14 07:38:02;;;;;;;6.10;2.00;;;;;;;;;;1754657;28;20226;-68
2023/04/14 07:38:54;;;;;;;5.22;2.10;;;;;;;;;;1754802;28;20225;-69
2023/04/14 07:39:45;;;;;;;4.00;2.25;;;;;;;;;;1754689;28;20201;-68
2023/04/14 07:40:37;;;;;;;3.65;1.92;;;;;;;;;;1754679;28;20210;-68
2023/04/14 07:41:29;;;;;;;3.75;1.73;;;;;;;;;;1754724;28;20232;-68
2023/04/14 07:42:20;;;;;;;5.82;2.20;;;;;;;;;;1754724;28;20217;-66
2023/04/14 07:43:12;;;;;;;4.50;2.60;;;;;;;;;;1754728;28;20285;-65
2023/04/14 07:44:04;;;;;;;7.00;2.50;;;;;;;;;;1754691;28;20240;-66
2023/04/14 07:44:55;;;;;;;4.72;1.60;;;;;;;;;;1754839;28;20202;-66
2023/04/14 07:45:47;;;;;;;6.03;2.60;;;;;;;;;;1754586;28;20201;-66
2023/04/14 07:46:38;;;;;;;3.70;2.15;;;;;;;;;;1754371;28;20216;-66
2023/04/14 07:47:30;;;;;;;4.53;1.60;;;;;;;;;;1754533;28;20197;-66
2023/04/14 07:48:22;;;;;;;4.65;1.45;;;;;;;;;;1754686;28;20248;-66
2023/04/14 07:49:14;;;;;;;3.97;1.85;;;;;;;;;;1754641;28;20276;-66
2023/04/14 07:50:05;;;;;;;2.15;1.05;;;;;;;;;;1754418;28;20205;-69
2023/04/14 07:50:58;;;;;;;3.80;1.45;;;;;;;;;;1753341;28;20581;-66
2023/04/14 07:51:51;;;;;;;4.35;1.88;;;;;;;;;;1754617;28;20205;-67
2023/04/14 07:52:42;;;;;;;5.07;1.90;;;;;;;;;;1754613;28;20241;-66
2023/04/14 07:53:39;;;;;;;4.40;1.55;;;;;;;;;;1754736;28;20207;-66
2023/04/14 07:54:31;;;;;;;3.17;1.30;;;;;;;;;;1754715;28;20202;-66
2023/04/14 07:55:22;;;;;;;2.88;1.83;;;;;;;;;;1755276;28;20240;-66
2023/04/14 07:56:14;;;;;;;4.60;1.90;;;;;;;;;;1755817;28;20190;-67
2023/04/14 07:57:08;;;;;;;4.68;1.60;;;;;;;;;;1755825;28;20457;-66
2023/04/14 07:58:00;;;;;;;4.88;1.73;;;;;;;;;;1755964;28;20610;-67
2023/04/14 07:58:51;;;;;;;6.40;1.77;;;;;;;;;;1755981;28;20209;-67
2023/04/14 07:59:43;;;;;;;6.57;4.00;;;;;;;;;;1756082;28;20653;-66
2023/04/14 08:00:34;;;;;;;4.57;2.70;;;;;;;;;;1755891;28;20600;-66
2023/04/14 08:01:27;;;;;;;5.70;1.48;;;;;;;;;;1755976;28;20259;-66
2023/04/14 08:02:18;;;;;;;4.30;1.98;;;;;;;;;;1755949;28;20212;-66
2023/04/14 08:03:10;;;;;;;5.30;2.03;;;;;;;;;;1755918;28;20695;-66
2023/04/14 08:04:02;;;;;;;5.15;2.20;;;;;;;;;;1755971;28;20204;-66
2023/04/14 08:04:54;;;;;;;4.63;1.98;;;;;;;;;;1755641;28;20194;-66
2023/04/14 08:05:46;;;;;;;5.25;1.95;;;;;;;;;;1755780;28;20263;-66
2023/04/14 08:06:38;;;;;;;2.88;1.60;;;;;;;;;;1755736;28;20226;-66
2023/04/14 08:07:31;;;;;;;6.72;2.10;;;;;;;;;;1755885;28;20201;-66
2023/04/14 08:08:23;;;;;;;4.35;1.95;;;;;;;;;;1755948;28;20209;-66
2023/04/14 08:09:14;;;;;;;6.65;2.45;;;;;;;;;;1755911;28;20221;-66
2023/04/14 08:10:06;;;;;;;3.55;1.55;;;;;;;;;;1755917;28;20197;-66
2023/04/14 08:10:58;;;;;;;4.35;1.65;;;;;;;;;;1755801;28;20217;-66
2023/04/14 08:11:50;;;;;;;5.28;1.80;;;;;;;;;;1755874;28;20190;-66
2023/04/14 08:12:41;;;;;;;3.83;1.88;;;;;;;;;;1755934;28;20262;-66
2023/04/14 08:13:33;;;;;;;3.20;1.70;;;;;;;;;;1755894;28;20225;-69
2023/04/14 08:14:24;;;;;;;4.30;1.80;;;;;;;;;;1755892;28;20233;-69
2023/04/14 08:15:16;;;;;;;4.45;1.92;;;;;;;;;;1755897;28;20612;-66
2023/04/14 08:16:08;;;;;;;4.53;1.95;;;;;;;;;;1755793;28;20218;-66
2023/04/14 08:17:00;;;;;;;4.40;1.42;;;;;;;;;;1755511;28;20262;-67
2023/04/14 08:17:52;;;;;;;5.00;1.60;;;;;;;;;;1755896;28;20679;-69
2023/04/14 08:18:43;;;;;;;5.13;1.33;;;;;;;;;;1755929;28;20665;-66
2023/04/14 08:19:35;;;;;;;3.10;1.52;;;;;;;;;;1755928;28;20198;-66
2023/04/14 08:20:26;;;;;;;5.18;1.70;;;;;;;;;;1755429;28;20285;-67
2023/04/14 08:21:18;;;;;;;3.63;1.70;;;;;;;;;;1755770;28;20254;-69
2023/04/14 08:22:10;;;;;;;3.40;1.30;;;;;;;;;;1755793;28;20198;-69
2023/04/14 08:23:03;;;;;;;3.20;1.55;;;;;;;;;;1755842;28;20198;-67
2023/04/14 08:23:54;;;;;;;4.43;1.80;;;;;;;;;;1755751;28;20208;-67
2023/04/14 08:24:47;;;;;;;6.82;1.85;;;;;;;;;;1755822;28;20233;-67
2023/04/14 08:25:38;;;;;;;4.60;2.78;;;;;;;;;;1755824;28;20657;-67
2023/04/14 08:26:30;;;;;;;6.10;1.67;;;;;;;;;;1755414;28;20221;-67
2023/04/14 08:27:21;;;;;;;3.65;1.52;;;;;;;;;;1755707;28;20210;-67
2023/04/14 08:28:13;;;;;;;5.32;1.48;;;;;;;;;;1755740;28;20243;-67
2023/04/14 08:29:04;;;;;;;5.65;1.67;;;;;;;;;;1755779;28;20205;-67
2023/04/14 08:29:56;;;;;;;4.90;1.70;;;;;;;;;;1755749;28;20202;-67
2023/04/14 08:30:48;;;;;;;4.10;1.65;;;;;;;;;;1755574;28;20637;-67
2023/04/14 08:31:40;;;;;;;4.20;1.63;;;;;;;;;;1755728;28;20365;-67
2023/04/14 08:32:32;;;;;;;4.65;2.83;;;;;;;;;;1755783;28;20226;-67
2023/04/14 08:33:24;;;;;;;6.00;1.95;;;;;;;;;;1755725;28;20225;-67
2023/04/14 08:34:15;;;;;;;4.20;2.33;;;;;;;;;;1755741;28;20201;-67
2023/04/14 08:35:07;;;;;;;7.10;2.95;;;;;;;;;;1755812;28;20549;-67
2023/04/14 08:35:59;;;;;;;4.78;2.17;;;;;;;;;;1755728;28;20205;-67
2023/04/14 08:36:51;;;;;;;4.90;2.30;;;;;;;;;;1755327;28;20232;-67
2023/04/14 08:37:42;;;;;;;3.72;2.03;;;;;;;;;;1755044;28;20197;-66
2023/04/14 08:38:35;;;;;;;6.28;2.70;;;;;;;;;;1755865;28;20680;-67
2023/04/14 08:39:27;;;;;;;5.05;2.25;;;;;;;;;;1755860;28;20198;-67
2023/04/14 08:40:19;;;;;;;9.40;2.30;;;;;;;;;;1755845;28;20198;-67
2023/04/14 08:41:12;;;;;;;6.47;2.65;;;;;;;;;;1755950;28;20202;-67
2023/04/14 08:42:05;;;;;;;8.18;2.50;;;;;;;;;;1755772;28;20201;-67
2023/04/14 08:42:56;;;;;;;5.72;2.38;;;;;;;;;;1755814;28;20600;-66
2023/04/14 08:43:48;;;;;;;4.72;2.40;;;;;;;;;;1755798;28;20202;-66
2023/04/14 08:44:39;;;;;;;6.50;2.65;;;;;;;;;;1755896;28;20209;-66
2023/04/14 08:45:32;;;;;;;6.15;2.70;;;;;;;;;;1755821;28;20249;-67
2023/04/14 08:46:23;;;;;;;4.45;2.70;;;;;;;;;;1755377;28;20692;-67
2023/04/14 08:47:15;;;;;;;4.00;1.88;;;;;;;;;;1755594;28;20603;-67
2023/04/14 08:48:07;;;;;;;4.18;2.05;;;;;;;;;;1755700;28;20205;-66
2023/04/14 08:49:02;;;;;;;4.70;2.17;;;;;;;;;;1755709;28;20197;-66
2023/04/14 08:49:56;;;;;;;6.68;2.42;;;;;;;;;;1755653;28;20577;-66
2023/04/14 08:50:56;;;;;;;5.78;2.38;;;;;;;;;;1755145;28;20696;-67
2023/04/14 08:51:47;;;;;;;6.05;2.53;;;;;;;;;;1755741;28;20201;-67
2023/04/14 08:52:40;;;;;;;5.00;2.70;;;;;;;;;;1755672;28;20205;-66
2023/04/14 08:53:32;;;;;;;5.65;2.20;;;;;;;;;;1755652;28;20701;-67
2023/04/14 08:54:26;;;;;;;4.20;2.35;;;;;;;;;;1755629;28;20665;-67
2023/04/14 08:55:18;;;;;;;5.13;2.50;;;;;;;;;;1755598;28;20194;-67
2023/04/14 08:56:11;;;;;;;6.13;2.38;;;;;;;;;;1755538;28;20606;-67
2023/04/14 08:57:03;;;;;;;6.75;2.53;;;;;;;;;;1755375;28;20202;-67
2023/04/14 08:57:55;;;;;;;4.05;2.30;;;;;;;;;;1755609;28;20189;-67
2023/04/14 08:58:47;;;;;;;5.78;2.35;;;;;;;;;;1755503;28;20233;-67
2023/04/14 08:59:42;;;;;;;4.35;2.50;;;;;;;;;;1755674;28;20232;-67
2023/04/14 09:00:34;;;;;;;6.95;2.70;;;;;;;;;;1755510;28;20228;-67
2023/04/14 09:01:26;;;;;;;4.53;2.65;;;;;;;;;;1755568;28;20201;-67
2023/04/14 09:02:18;;;;;;;4.63;2.53;;;;;;;;;;1755609;28;20205;-67
2023/04/14 09:03:10;;;;;;;4.75;2.97;;;;;;;;;;1755525;28;20197;-67
2023/04/14 09:04:02;;;;;;;6.03;2.75;;;;;;;;;;1755532;28;20233;-67
2023/04/14 09:04:54;;;;;;;6.53;2.40;;;;;;;;;;1754987;28;20576;-67
2023/04/14 09:05:46;;;;;;;3.63;2.00;;;;;;;;;;1755267;28;20257;-66
2023/04/14 09:06:38;;;;;;;5.95;2.97;;;;;;;;;;1754841;28;20645;-67
2023/04/14 09:07:29;;;;;;;3.85;2.30;;;;;;;;;;1755416;28;20575;-67
2023/04/14 09:08:21;;;;;;;7.68;2.45;;;;;;;;;;1755518;28;20198;-68
2023/04/14 09:09:12;;;;;;;5.65;2.42;;;;;;;;;;1755509;28;20209;-67
2023/04/14 09:10:07;;;;;;;5.40;2.30;;;;;;;;;;1755575;28;20198;-67
2023/04/14 09:10:59;;;;;;;5.68;3.03;;;;;;;;;;1755444;28;20771;-67
2023/04/14 09:11:52;;;;;;;5.88;2.00;;;;;;;;;;1755584;28;20189;-68
2023/04/14 09:12:43;;;;;;;6.38;2.60;;;;;;;;;;1755480;28;20209;-67
2023/04/14 09:13:36;;;;;;;6.82;2.60;;;;;;;;;;1755601;28;20225;-67
2023/04/14 09:14:28;;;;;;;6.45;2.83;;;;;;;;;;1755455;28;20579;-67
2023/04/14 09:15:20;;;;;;;4.75;2.50;;;;;;;;;;1755178;28;20613;-67
2023/04/14 09:16:12;;;;;;;4.45;2.40;;;;;;;;;;1755476;28;20194;-67
2023/04/14 09:17:04;;;;;;;12.70;2.72;;;;;;;;;;1755313;28;20201;-67
2023/04/14 09:17:55;;;;;;;6.70;2.40;;;;;;;;;;1755509;28;20205;-67
2023/04/14 09:18:48;;;;;;;6.72;2.80;;;;;;;;;;1755463;28;20585;-67
2023/04/14 09:19:40;;;;;;;4.40;2.72;;;;;;;;;;1755543;28;20287;-67
2023/04/14 09:20:32;;;;;;;5.63;2.75;;;;;;;;;;1755364;28;20198;-67
2023/04/14 09:21:26;;;;;;;8.00;2.80;;;;;;;;;;1755526;28;20217;-67
2023/04/14 09:22:18;;;;;;;3.90;1.92;;;;;;;;;;1755490;28;20616;-67
2023/04/14 09:23:09;;;;;;;4.05;2.10;;;;;;;;;;1755432;28;20604;-67
2023/04/14 09:24:01;;;;;;;9.63;2.78;;;;;;;;;;1755543;28;20685;-67
2023/04/14 09:24:52;;;;;;;4.65;2.38;;;;;;;;;;1755581;28;20202;-67
2023/04/14 09:25:46;;;;;;;5.63;2.60;;;;;;;;;;1755551;28;20198;-67
2023/04/14 09:26:37;;;;;;;4.65;2.10;;;;;;;;;;1755060;28;20217;-67
2023/04/14 09:27:29;;;;;;;5.18;2.70;;;;;;;;;;1755296;28;20692;-67
2023/04/14 09:28:21;;;;;;;5.15;3.13;;;;;;;;;;1755436;28;20289;-67
2023/04/14 09:29:13;;;;;;;5.15;3.15;;;;;;;;;;1755127;28;20190;-67
2023/04/14 09:30:05;;;;;;;7.25;2.65;;;;;;;;;;1755103;28;20222;-67
2023/04/14 09:30:57;;;;;;;5.05;2.20;;;;;;;;;;1755253;28;20317;-67
2023/04/14 09:31:48;;;;;;;3.15;2.28;;;;;;;;;;1755291;28;20225;-67
2023/04/14 09:32:41;;;;;;;4.75;2.80;;;;;;;;;;1755386;28;20259;-67
2023/04/14 09:33:32;;;;;;;5.03;2.17;;;;;;;;;;1755307;28;20783;-67
2023/04/14 09:34:25;;;;;;;5.05;2.38;;;;;;;;;;1755337;28;20205;-67
2023/04/14 09:35:16;;;;;;;4.18;2.20;;;;;;;;;;1755345;28;20699;-67
2023/04/14 09:36:17;;;;;;;7.82;2.72;;;;;;;;;;1755376;28;20563;-66
2023/04/14 09:37:09;;;;;;;5.30;2.50;;;;;;;;;;1755201;28;20202;-67
2023/04/14 09:38:01;;;;;;;4.97;2.83;;;;;;;;;;1754942;28;20221;-67
2023/04/14 09:38:53;;;;;;;7.07;2.88;;;;;;;;;;1755191;28;20205;-66
2023/04/14 09:39:48;;;;;;;3.95;2.50;;;;;;;;;;1755287;28;20201;-67
2023/04/14 09:40:42;;;;;;;5.55;2.30;;;;;;;;;;1755313;28;20213;-66
2023/04/14 09:41:35;;;;;;;6.18;2.40;;;;;;;;;;1755416;28;20230;-67
2023/04/14 09:42:38;;;;;;;4.82;2.40;;;;;;;;;;1755254;28;20197;-66
2023/04/14 09:43:29;;;;;;;5.22;2.28;;;;;;;;;;1755496;28;20235;-67
2023/04/14 09:44:22;;;;;;;5.80;2.60;;;;;;;;;;1755242;28;20228;-66
2023/04/14 09:45:13;;;;;;;6.07;2.78;;;;;;;;;;1755234;28;20670;-67
2023/04/14 09:46:05;;;;;;;5.45;2.35;;;;;;;;;;1755290;28;20190;-67
2023/04/14 09:46:57;;;;;;;6.43;2.90;;;;;;;;;;1754860;28;20222;-67
2023/04/14 09:48:06;;;;;;;4.22;2.10;;;;;;;;;;1755179;28;20661;-67
2023/04/14 09:48:59;;;;;;;5.13;2.25;;;;;;;;;;1755189;28;20198;-66
2023/04/14 09:49:56;;;;;;;6.03;2.17;;;;;;;;;;1755246;28;20202;-66
2023/04/14 09:51:02;;;;;;;4.68;1.95;;;;;;;;;;1755162;28;20221;-67
2023/04/14 09:51:54;;;;;;;3.60;2.25;;;;;;;;;;1755198;28;20206;-67
2023/04/14 09:52:47;;;;;;;3.25;1.50;;;;;;;;;;1754860;28;20190;-67
2023/04/14 09:53:39;;;;;;;3.80;1.80;;;;;;;;;;1755227;28;20250;-66
2023/04/14 09:54:31;;;;;;;3.33;1.60;;;;;;;;;;1754914;28;20221;-67
2023/04/14 09:55:22;;;;;;;4.78;1.90;;;;;;;;;;1755167;28;20205;-66
2023/04/14 09:56:14;;;;;;;7.13;1.92;;;;;;;;;;1755110;28;20714;-67
2023/04/14 09:57:07;;;;;;;3.83;2.05;;;;;;;;;;1755139;28;20201;-67
2023/04/14 09:58:00;;;;;;;4.28;1.60;;;;;;;;;;1755230;28;20225;-67
2023/04/14 09:58:52;;;;;;;5.57;1.70;;;;;;;;;;1755268;28;20553;-66
2023/04/14 09:59:46;;;;;;;7.10;2.10;;;;;;;;;;1755099;28;20673;-67
2023/04/14 10:00:38;;;;;;;5.45;2.30;;;;;;;;;;1755117;28;20248;-66
2023/04/14 10:01:32;;;;;;;5.00;1.95;;;;;;;;;;1755261;28;20601;-67
2023/04/14 10:02:24;;;;;;;3.67;1.80;;;;;;;;;;1755128;28;20202;-66
2023/04/14 10:03:16;;;;;;;6.53;2.63;;;;;;;;;;1755134;28;20202;-67
2023/04/14 10:04:22;;;;;;;3.83;2.10;;;;;;;;;;1755135;28;20202;-67
2023/04/14 10:05:13;;;;;;;3.40;1.90;;;;;;;;;;1755179;28;20205;-67
2023/04/14 10:06:08;;;;;;;4.72;1.80;;;;;;;;;;1755165;28;20607;-66
2023/04/14 10:06:59;;;;;;;4.20;1.60;;;;;;;;;;1754072;28;20236;-66
2023/04/14 10:07:51;;;;;;;4.30;2.00;;;;;;;;;;1754891;28;20226;-66
2023/04/14 10:08:43;;;;;;;5.93;2.20;;;;;;;;;;1754578;28;20225;-67
2023/04/14 10:09:36;;;;;;;3.75;1.80;;;;;;;;;;1755204;28;20616;-66
2023/04/14 10:10:28;;;;;;;6.30;1.85;;;;;;;;;;1755057;28;20201;-66
2023/04/14 10:11:20;;;;;;;4.65;1.75;;;;;;;;;;1755093;28;20189;-66
2023/04/14 10:12:13;;;;;;;5.88;1.90;;;;;;;;;;1754771;28;20637;-66
2023/04/14 10:13:06;;;;;;;3.97;1.63;;;;;;;;;;1755112;28;20565;-66